OOCL Oakland — 3EKJ6 — position and weather

sailwx.info

Track history (hours):
 
Tides and Currents Weather Stations Pressure Air Temp Water Temp Dewpoint Dewpoint Depression Visibility Wind Speed Wind Dir Waves Ship Positions

OOCL Oakland

Last reported at 2016-Sep-18 15:33 UTC. Time now 2016-Sep-27 01:58 UTC.
Position S 26°44' E 153°11'.
Warning: this ship's position is 8 days out of date.

Length 280 m; draft 11.6 m.

Type: Ship. MMSI: 372703235.

Date/timePositionNaut miles runAvg speedWind from/ knotsBaromVisibWave heightAir tempDewpointWater temp
2016-Sep-18 15:33S 26°44' E 153°11'1514.6
2016-Sep-18 14:34S 26°58' E 153°14'25 6.1
2016-Sep-18 10:31S 27°22' E 153°10'0 0.0
2016-Sep-18 09:31S 27°22' E 153°10'0 0.0
2016-Sep-18 02:31S 27°22' E 153°10'0 0.0
2016-Sep-18 01:31S 27°22' E 153°10'0 0.0
2016-Sep-18 00:31S 27°22' E 153°10'0 0.0
2016-Sep-17 22:31S 27°22' E 153°10'0 0.0
2016-Sep-17 21:31S 27°22' E 153°10'0 0.0
2016-Sep-17 20:31S 27°22' E 153°10'0 0.0
2016-Sep-17 19:16S 27°22' E 153°10'0 0.0
2016-Sep-17 13:31S 27°22' E 153°10'0 0.0
2016-Sep-17 12:28S 27°22' E 153°10'0 0.0
2016-Sep-17 10:31S 27°22' E 153°10'0 0.0
2016-Sep-17 09:31S 27°22' E 153°10'0 0.0
2016-Sep-17 08:31S 27°22' E 153°10'1 0.7
2016-Sep-17 07:33S 27°22' E 153°10'2512.3
2016-Sep-17 05:34S 26°57' E 153°13'1413.0
2016-Sep-17 04:27S 26°43' E 153°12'4010.4
2016-Sep-17 00:33S 27°14' E 153°41'34716.5
2016-Sep-16 03:33S 32°55' E 152°29'1616.4
2016-Sep-16 02:33S 33°10' E 152°22'42418.4
2016-Sep-15 03:33S 39°01' E 147°28'4120.6
2016-Sep-15 01:33S 39°17' E 146°38'  
2016-Sep-12 19:33S 39°04' E 145°55'3015.2
2016-Sep-12 17:33S 39°08' E 146°34'5518.3
2016-Sep-12 14:32S 38°51' E 147°41'1817.5
2016-Sep-12 13:32S 38°46' E 148°03'3817.7
2016-Sep-12 11:25S 38°24' E 148°42'1618.4
2016-Sep-12 10:32S 38°15' E 148°59'5819.3
2016-Sep-12 07:33S 37°43' E 149°59'1717.1
2016-Sep-12 06:33S 37°30' E 150°14'5719.0
2016-Sep-12 03:33S 36°35' E 150°32'  
2016-Sep-09 19:07S 33°05' E 152°11'916.4
2016-Sep-09 18:34S 32°58' E 152°17'1716.5
2016-Sep-09 17:34S 32°45' E 152°29'1817.7
2016-Sep-09 16:34S 32°30' E 152°40'29316.9
2016-Sep-08 23:17S 27°44' E 153°55'4215.4
2016-Sep-08 20:33S 27°02' E 153°55'  
Track history (hours):
 
Tides and Currents Weather Stations Pressure Air Temp Water Temp Dewpoint Dewpoint Depression Visibility Wind Speed Wind Dir Waves Ship Positions

OOCL Oakland

Last reported at 2016-Sep-18 15:33 UTC. Time now 2016-Sep-27 01:58 UTC.
Position S 26°44' E 153°11'.
Warning: this ship's position is 8 days out of date.

Length 280 m; draft 11.6 m.

Type: Ship. MMSI: 372703235.

Date/timePositionNaut miles runAvg speedWind from/ knotsBaromVisibWave heightAir tempDewpointWater temp
2016-Sep-18 15:33S 26°44' E 153°11'1514.6
2016-Sep-18 14:34S 26°58' E 153°14'25 6.1
2016-Sep-18 10:31S 27°22' E 153°10'0 0.0
2016-Sep-18 09:31S 27°22' E 153°10'0 0.0
2016-Sep-18 02:31S 27°22' E 153°10'0 0.0
2016-Sep-18 01:31S 27°22' E 153°10'0 0.0
2016-Sep-18 00:31S 27°22' E 153°10'0 0.0
2016-Sep-17 22:31S 27°22' E 153°10'0 0.0
2016-Sep-17 21:31S 27°22' E 153°10'0 0.0
2016-Sep-17 20:31S 27°22' E 153°10'0 0.0
2016-Sep-17 19:16S 27°22' E 153°10'0 0.0
2016-Sep-17 13:31S 27°22' E 153°10'0 0.0
2016-Sep-17 12:28S 27°22' E 153°10'0 0.0
2016-Sep-17 10:31S 27°22' E 153°10'0 0.0
2016-Sep-17 09:31S 27°22' E 153°10'0 0.0
2016-Sep-17 08:31S 27°22' E 153°10'1 0.7
2016-Sep-17 07:33S 27°22' E 153°10'2512.3
2016-Sep-17 05:34S 26°57' E 153°13'1413.0
2016-Sep-17 04:27S 26°43' E 153°12'4010.4
2016-Sep-17 00:33S 27°14' E 153°41'34716.5
2016-Sep-16 03:33S 32°55' E 152°29'1616.4
2016-Sep-16 02:33S 33°10' E 152°22'42418.4
2016-Sep-15 03:33S 39°01' E 147°28'4120.6
2016-Sep-15 01:33S 39°17' E 146°38'  
2016-Sep-12 19:33S 39°04' E 145°55'3015.2
2016-Sep-12 17:33S 39°08' E 146°34'5518.3
2016-Sep-12 14:32S 38°51' E 147°41'1817.5
2016-Sep-12 13:32S 38°46' E 148°03'3817.7
2016-Sep-12 11:25S 38°24' E 148°42'1618.4
2016-Sep-12 10:32S 38°15' E 148°59'5819.3
2016-Sep-12 07:33S 37°43' E 149°59'1717.1
2016-Sep-12 06:33S 37°30' E 150°14'5719.0
2016-Sep-12 03:33S 36°35' E 150°32'  
2016-Sep-09 19:07S 33°05' E 152°11'916.4
2016-Sep-09 18:34S 32°58' E 152°17'1716.5
2016-Sep-09 17:34S 32°45' E 152°29'1817.7
2016-Sep-09 16:34S 32°30' E 152°40'29316.9
2016-Sep-08 23:17S 27°44' E 153°55'4215.4
2016-Sep-08 20:33S 27°02' E 153°55'  

Dump ship's entire track history